createdAt,value
2018-04-30T00:00:54.929Z,1003.68
2018-04-30T00:01:54.953Z,1003.62
2018-04-30T00:02:54.973Z,1003.60
2018-04-30T00:03:54.999Z,1003.56
2018-04-30T00:04:55.026Z,1003.57
2018-04-30T00:05:55.053Z,1003.59
2018-04-30T00:06:55.071Z,1003.57
2018-04-30T00:07:55.099Z,1003.51
2018-04-30T00:08:55.133Z,1003.52
2018-04-30T00:09:55.151Z,1003.53
2018-04-30T00:10:55.165Z,1003.50
2018-04-30T00:11:55.200Z,1003.47
2018-04-30T00:12:55.216Z,1003.48
2018-04-30T00:13:55.246Z,1003.45
2018-04-30T00:14:55.265Z,1003.38
2018-04-30T00:15:55.290Z,1003.40
2018-04-30T00:16:55.315Z,1003.35
2018-04-30T00:17:55.342Z,1003.29
2018-04-30T00:18:55.373Z,1003.31
2018-04-30T00:19:55.390Z,1003.34
2018-04-30T00:20:55.411Z,1003.33
2018-04-30T00:21:55.435Z,1003.30
2018-04-30T00:22:55.461Z,1003.28
2018-04-30T00:23:55.489Z,1003.23
2018-04-30T00:24:55.509Z,1003.19
2018-04-30T00:25:55.535Z,1003.14
2018-04-30T00:26:55.565Z,1003.12
2018-04-30T00:27:55.592Z,1003.06
2018-04-30T00:28:55.605Z,1003.02
2018-04-30T00:29:55.631Z,1003.00
2018-04-30T00:30:55.658Z,1003.01
2018-04-30T00:31:55.683Z,1002.98
2018-04-30T00:32:55.707Z,1002.92
2018-04-30T00:33:55.727Z,1002.90
2018-04-30T00:34:55.759Z,1002.88
2018-04-30T00:35:55.787Z,1002.89
2018-04-30T00:36:55.800Z,1002.83
2018-04-30T00:37:55.825Z,1002.79
2018-04-30T00:38:55.849Z,1002.78
2018-04-30T00:39:55.877Z,1002.68
2018-04-30T00:40:55.907Z,1002.70
2018-04-30T00:41:55.920Z,1002.68
2018-04-30T00:42:55.949Z,1002.64
2018-04-30T00:43:55.970Z,1002.62
2018-04-30T00:44:55.993Z,1002.59
2018-04-30T00:45:56.020Z,1002.60
2018-04-30T00:46:56.045Z,1002.51
2018-04-30T00:47:56.069Z,1002.53
2018-04-30T00:48:56.091Z,1002.53
2018-04-30T00:49:56.119Z,1002.53
2018-04-30T00:50:56.161Z,1002.58
2018-04-30T00:51:56.183Z,1002.58
2018-04-30T00:52:56.193Z,1002.55
2018-04-30T00:53:56.217Z,1002.58
2018-04-30T00:54:56.238Z,1002.54
2018-04-30T00:55:56.266Z,1002.50
2018-04-30T00:56:56.293Z,1002.52
2018-04-30T00:57:56.312Z,1002.57
2018-04-30T00:58:56.333Z,1002.45
2018-04-30T00:59:56.359Z,1002.44
2018-04-30T01:00:56.387Z,1002.45
2018-04-30T01:01:56.412Z,1002.37
2018-04-30T01:02:56.437Z,1002.40
2018-04-30T01:03:56.462Z,1002.35
2018-04-30T01:04:56.478Z,1002.40
2018-04-30T01:05:56.513Z,1002.36
2018-04-30T01:06:56.530Z,1002.29
2018-04-30T01:07:56.552Z,1002.30
2018-04-30T01:08:56.583Z,1002.22
2018-04-30T01:09:56.609Z,1002.24
2018-04-30T01:10:56.631Z,1002.23
2018-04-30T01:11:56.652Z,1002.21
2018-04-30T01:12:56.675Z,1002.26
2018-04-30T01:13:56.702Z,1002.25
2018-04-30T01:14:56.728Z,1002.19
2018-04-30T01:15:56.749Z,1002.19
2018-04-30T01:16:56.775Z,1002.23
2018-04-30T01:17:56.802Z,1002.06
2018-04-30T01:18:56.823Z,1002.14
2018-04-30T01:19:56.849Z,1002.21
2018-04-30T01:20:56.870Z,1002.12
2018-04-30T01:21:56.897Z,1002.07
2018-04-30T01:22:56.919Z,1001.94
2018-04-30T01:23:56.948Z,1002.02
2018-04-30T01:24:56.968Z,1001.96
2018-04-30T01:25:56.996Z,1001.96
2018-04-30T01:26:57.024Z,1001.92
2018-04-30T01:27:57.042Z,1001.85
2018-04-30T01:28:57.088Z,1001.89
2018-04-30T01:29:57.096Z,1001.81
2018-04-30T01:30:57.112Z,1001.86
2018-04-30T01:31:57.142Z,1001.84
2018-04-30T01:32:57.165Z,1001.78
2018-04-30T01:33:57.188Z,1001.86
2018-04-30T01:34:57.211Z,1001.76
2018-04-30T01:35:57.312Z,1001.78
2018-04-30T01:36:57.262Z,1001.75
2018-04-30T01:37:57.287Z,1001.71
2018-04-30T01:38:57.324Z,1001.78
2018-04-30T01:39:57.338Z,1001.75
2018-04-30T01:40:57.357Z,1001.67
2018-04-30T01:41:57.381Z,1001.56
2018-04-30T01:42:57.411Z,1001.62
2018-04-30T01:43:57.442Z,1001.64
2018-04-30T01:44:57.460Z,1001.55
2018-04-30T01:45:57.483Z,1001.48
2018-04-30T01:46:57.507Z,1001.51
2018-04-30T01:47:57.531Z,1001.53
2018-04-30T01:48:57.557Z,1001.47
2018-04-30T01:49:57.580Z,1001.44
2018-04-30T01:50:57.601Z,1001.46
2018-04-30T01:51:57.634Z,1001.41
2018-04-30T01:52:57.653Z,1001.44
2018-04-30T01:53:57.674Z,1001.41
2018-04-30T01:54:57.701Z,1001.33
2018-04-30T01:55:57.726Z,1001.35
2018-04-30T01:56:57.749Z,1001.26
2018-04-30T01:57:57.776Z,1001.30
2018-04-30T01:58:57.797Z,1001.22
2018-04-30T01:59:57.821Z,1001.23
2018-04-30T02:00:57.846Z,1001.19
2018-04-30T02:01:57.867Z,1001.15
2018-04-30T02:02:57.896Z,1001.04
2018-04-30T02:03:57.925Z,1001.10
2018-04-30T02:04:57.943Z,1001.01
2018-04-30T02:05:57.971Z,1000.98
2018-04-30T02:06:57.994Z,1000.95
2018-04-30T02:07:58.020Z,1000.90
2018-04-30T02:08:58.041Z,1000.81
2018-04-30T02:09:58.065Z,1000.79
2018-04-30T02:10:58.091Z,1000.71
2018-04-30T02:11:58.115Z,1000.73
2018-04-30T02:12:58.139Z,1000.67
2018-04-30T02:13:58.161Z,1000.66
2018-04-30T02:14:58.192Z,1000.62
2018-04-30T02:15:58.221Z,1000.61
2018-04-30T02:16:58.236Z,1000.62
2018-04-30T02:17:58.263Z,1000.52
2018-04-30T02:18:58.285Z,1000.44
2018-04-30T02:19:58.311Z,1000.39
2018-04-30T02:20:58.330Z,1000.36
2018-04-30T02:21:58.355Z,1000.25
2018-04-30T02:22:58.388Z,1000.22
2018-04-30T02:23:58.414Z,1000.21
2018-04-30T02:24:58.429Z,1000.30
2018-04-30T02:25:58.452Z,1000.24
2018-04-30T02:26:58.483Z,1000.21
2018-04-30T02:27:58.505Z,1000.03
2018-04-30T02:28:58.525Z,1000.10
2018-04-30T02:29:58.553Z,1000.20
2018-04-30T02:30:58.576Z,999.99
2018-04-30T02:31:58.604Z,1000.09
2018-04-30T02:32:58.627Z,1000.00
2018-04-30T02:33:58.644Z,1000.03
2018-04-30T02:34:58.669Z,999.88
2018-04-30T02:35:58.696Z,999.92
2018-04-30T02:36:58.721Z,999.78
2018-04-30T02:37:58.745Z,999.90
2018-04-30T02:38:58.764Z,999.83
2018-04-30T02:39:58.794Z,999.74
2018-04-30T02:40:58.817Z,999.77
2018-04-30T02:41:58.839Z,999.76
2018-04-30T02:42:58.868Z,999.60
2018-04-30T02:43:58.889Z,999.68
2018-04-30T02:44:58.910Z,999.67
2018-04-30T02:45:58.942Z,999.59
2018-04-30T02:46:58.959Z,999.66
2018-04-30T02:47:58.987Z,999.61
2018-04-30T02:48:59.010Z,999.49
2018-04-30T02:49:59.032Z,999.46
2018-04-30T02:50:59.058Z,999.38
2018-04-30T02:51:59.078Z,999.51
2018-04-30T02:52:59.104Z,999.31
2018-04-30T02:53:59.134Z,999.39
2018-04-30T02:54:59.154Z,999.23
2018-04-30T02:55:59.178Z,999.23
2018-04-30T02:56:59.212Z,999.12
2018-04-30T02:57:59.224Z,999.16
2018-04-30T02:58:59.249Z,999.00
2018-04-30T02:59:59.277Z,998.94
2018-04-30T03:00:59.297Z,999.07
2018-04-30T03:01:59.320Z,999.06
2018-04-30T03:02:59.344Z,998.90
2018-04-30T03:03:59.366Z,998.90
2018-04-30T03:04:59.393Z,998.97
2018-04-30T03:05:59.422Z,998.91
2018-04-30T03:06:59.437Z,998.83
2018-04-30T03:07:59.463Z,998.80
2018-04-30T03:08:59.490Z,998.78
2018-04-30T03:09:59.513Z,998.81
2018-04-30T03:10:59.534Z,998.92
2018-04-30T03:11:59.564Z,998.81
2018-04-30T03:12:59.581Z,998.73
2018-04-30T03:13:59.607Z,998.71
2018-04-30T03:14:59.631Z,998.75
2018-04-30T03:15:59.658Z,998.69
2018-04-30T03:16:59.681Z,998.65
2018-04-30T03:17:59.707Z,998.66
2018-04-30T03:18:59.730Z,998.65
2018-04-30T03:19:59.752Z,998.55
2018-04-30T03:20:59.776Z,998.60
2018-04-30T03:21:59.806Z,998.59
2018-04-30T03:22:59.826Z,998.57
2018-04-30T03:23:59.850Z,998.56
2018-04-30T03:24:59.876Z,998.57
2018-04-30T03:25:59.899Z,998.57
2018-04-30T03:26:59.923Z,998.57
2018-04-30T03:27:59.941Z,998.41
2018-04-30T03:28:59.965Z,998.40
2018-04-30T03:29:59.991Z,998.35
2018-04-30T03:31:00.020Z,998.32
2018-04-30T03:32:00.042Z,998.27
2018-04-30T03:33:00.062Z,998.25
2018-04-30T03:34:00.090Z,998.27
2018-04-30T03:35:00.114Z,998.29
2018-04-30T03:36:00.141Z,998.18
2018-04-30T03:37:00.157Z,998.18
2018-04-30T03:38:00.189Z,998.24
2018-04-30T03:39:00.209Z,998.20
2018-04-30T03:40:00.230Z,998.12
2018-04-30T03:41:00.251Z,998.11
2018-04-30T03:42:00.281Z,998.13
2018-04-30T03:43:00.305Z,998.03
2018-04-30T03:44:00.330Z,998.14
2018-04-30T03:45:00.358Z,997.99
2018-04-30T03:46:00.378Z,998.01
2018-04-30T03:47:00.400Z,998.08
2018-04-30T03:48:00.429Z,998.09
2018-04-30T03:49:00.446Z,998.00
2018-04-30T03:50:00.470Z,998.04
2018-04-30T03:51:00.495Z,998.15
2018-04-30T03:52:00.520Z,998.09
2018-04-30T03:53:00.543Z,997.98
2018-04-30T03:54:00.569Z,998.03
2018-04-30T03:55:00.591Z,998.11
2018-04-30T03:56:00.621Z,998.09
2018-04-30T03:57:00.640Z,998.02
2018-04-30T03:58:00.664Z,998.03
2018-04-30T03:59:00.690Z,998.06
2018-04-30T04:00:00.712Z,998.03
2018-04-30T04:01:00.735Z,997.91
2018-04-30T04:02:00.761Z,997.99
2018-04-30T04:03:00.852Z,998.06
2018-04-30T04:04:00.813Z,998.04
2018-04-30T04:05:00.830Z,997.99
2018-04-30T04:06:00.861Z,997.99
2018-04-30T04:07:00.882Z,997.93
2018-04-30T04:08:00.908Z,997.94
2018-04-30T04:09:00.930Z,997.90
2018-04-30T04:10:00.955Z,997.98
2018-04-30T04:11:00.974Z,997.84
2018-04-30T04:12:01.006Z,997.92
2018-04-30T04:13:01.028Z,997.92
2018-04-30T04:14:01.054Z,997.95
2018-04-30T04:15:01.080Z,997.97
2018-04-30T04:16:01.104Z,997.81
2018-04-30T04:17:01.118Z,997.87
2018-04-30T04:18:01.145Z,997.86
2018-04-30T04:19:01.183Z,997.73
2018-04-30T04:20:01.205Z,997.77
2018-04-30T04:21:01.229Z,997.76
2018-04-30T04:22:01.244Z,997.77
2018-04-30T04:23:01.268Z,997.74
2018-04-30T04:24:01.294Z,997.72
2018-04-30T04:25:01.315Z,997.73
2018-04-30T04:26:01.339Z,997.71
2018-04-30T04:27:01.368Z,997.65
2018-04-30T04:28:01.389Z,997.58
2018-04-30T04:29:01.419Z,997.54
2018-04-30T04:30:01.435Z,997.47
2018-04-30T04:31:01.473Z,997.42
2018-04-30T04:32:01.488Z,997.40
2018-04-30T04:33:01.519Z,997.41
2018-04-30T04:34:01.535Z,997.33
2018-04-30T04:35:01.568Z,997.40
2018-04-30T04:36:01.583Z,997.31
2018-04-30T04:37:01.613Z,997.37
2018-04-30T04:38:01.637Z,997.38
2018-04-30T04:39:01.661Z,997.31
2018-04-30T04:40:01.684Z,997.27
2018-04-30T04:41:01.707Z,997.30
2018-04-30T04:42:01.741Z,997.31
2018-04-30T04:43:01.753Z,997.22
2018-04-30T04:44:01.778Z,997.19
2018-04-30T04:45:01.813Z,997.21
2018-04-30T04:46:01.832Z,997.20
2018-04-30T04:47:01.852Z,997.26
2018-04-30T04:48:01.883Z,997.19
2018-04-30T04:49:01.903Z,997.27
2018-04-30T04:50:01.928Z,997.25
2018-04-30T04:51:01.953Z,997.25
2018-04-30T04:52:01.981Z,997.19
2018-04-30T04:53:01.998Z,997.15
2018-04-30T04:54:02.023Z,997.18
2018-04-30T04:55:02.049Z,997.10
2018-04-30T04:56:02.072Z,997.10
2018-04-30T04:57:02.101Z,997.08
2018-04-30T04:58:02.128Z,997.08
2018-04-30T04:59:02.150Z,997.05
2018-04-30T05:00:02.172Z,997.06
2018-04-30T05:01:02.197Z,997.04
2018-04-30T05:02:02.222Z,997.06
2018-04-30T05:03:02.243Z,997.06
2018-04-30T05:04:02.272Z,997.02
2018-04-30T05:05:02.294Z,997.00
2018-04-30T05:06:02.317Z,996.96
2018-04-30T05:07:02.342Z,996.92
2018-04-30T05:08:02.370Z,996.87
2018-04-30T05:09:02.396Z,996.80
2018-04-30T05:10:02.417Z,996.74
2018-04-30T05:11:02.445Z,996.67
2018-04-30T05:12:02.468Z,996.64
2018-04-30T05:13:02.491Z,996.63
2018-04-30T05:14:02.510Z,996.63
2018-04-30T05:15:02.541Z,996.67
2018-04-30T05:16:02.566Z,996.67
2018-04-30T05:17:02.589Z,996.74
2018-04-30T05:18:02.617Z,996.78
2018-04-30T05:19:02.638Z,996.80
2018-04-30T05:20:02.666Z,996.89
2018-04-30T05:21:02.687Z,996.92
2018-04-30T05:22:02.711Z,997.03
2018-04-30T05:23:02.735Z,997.05
2018-04-30T05:24:02.756Z,997.15
2018-04-30T05:25:02.783Z,997.24
2018-04-30T05:26:02.809Z,997.34
2018-04-30T05:27:02.832Z,997.32
2018-04-30T05:28:02.860Z,997.40
2018-04-30T05:29:02.882Z,997.45
2018-04-30T05:30:02.905Z,997.51
2018-04-30T05:31:02.940Z,997.56
2018-04-30T05:32:02.957Z,997.67
2018-04-30T05:33:02.983Z,997.81
2018-04-30T05:34:03.005Z,997.98
2018-04-30T05:35:03.038Z,998.10
2018-04-30T05:36:03.055Z,998.14
2018-04-30T05:37:03.076Z,998.14
2018-04-30T05:38:03.101Z,998.11
2018-04-30T05:39:03.131Z,998.00
2018-04-30T05:40:03.165Z,997.98
2018-04-30T05:41:03.175Z,997.82
2018-04-30T05:42:03.220Z,997.69
2018-04-30T05:43:03.224Z,997.73
2018-04-30T05:44:03.251Z,997.77
2018-04-30T05:45:03.281Z,997.74
2018-04-30T05:46:03.305Z,997.65
2018-04-30T05:47:03.328Z,997.77
2018-04-30T05:48:03.447Z,997.82
2018-04-30T05:49:03.380Z,997.77
2018-04-30T05:50:03.408Z,997.71
2018-04-30T05:51:03.434Z,997.61
2018-04-30T05:52:03.462Z,997.49
2018-04-30T05:53:03.481Z,997.42
2018-04-30T05:54:03.512Z,997.42
2018-04-30T05:55:03.530Z,997.38
2018-04-30T05:56:03.555Z,997.40
2018-04-30T05:57:03.584Z,997.27
2018-04-30T05:58:03.605Z,997.24
2018-04-30T05:59:03.629Z,997.15
2018-04-30T06:00:03.663Z,997.14
2018-04-30T06:01:03.678Z,997.19
2018-04-30T06:02:03.709Z,997.25
2018-04-30T06:03:03.742Z,997.35
2018-04-30T06:04:03.759Z,997.42
2018-04-30T06:05:03.785Z,997.39
2018-04-30T06:06:03.812Z,997.41
2018-04-30T06:07:03.834Z,997.36
2018-04-30T06:08:03.896Z,997.29
2018-04-30T06:09:03.884Z,997.25
2018-04-30T06:10:03.909Z,997.12
2018-04-30T06:11:03.950Z,996.98
2018-04-30T06:12:03.973Z,996.94
2018-04-30T06:13:03.988Z,996.97
2018-04-30T06:14:04.020Z,996.98
2018-04-30T06:15:04.043Z,996.94
2018-04-30T06:16:04.068Z,996.94
2018-04-30T06:17:04.090Z,996.87
2018-04-30T06:18:04.115Z,996.94
2018-04-30T06:19:04.143Z,996.93
2018-04-30T06:20:04.167Z,997.01
2018-04-30T06:21:04.196Z,997.10
2018-04-30T06:22:04.222Z,997.10
2018-04-30T06:23:04.248Z,997.04
2018-04-30T06:24:04.275Z,997.05
2018-04-30T06:25:04.293Z,997.14
2018-04-30T06:26:04.328Z,997.09
2018-04-30T06:27:04.349Z,997.00
2018-04-30T06:28:04.375Z,997.09
2018-04-30T06:29:04.395Z,997.14
2018-04-30T06:30:04.428Z,997.27
2018-04-30T06:31:04.450Z,997.31
2018-04-30T06:32:04.474Z,997.28
2018-04-30T06:33:04.497Z,997.21
2018-04-30T06:34:04.523Z,997.14
2018-04-30T06:35:04.547Z,997.15
2018-04-30T06:36:04.573Z,997.20
2018-04-30T06:37:04.598Z,997.24
2018-04-30T06:38:04.622Z,997.26
2018-04-30T06:39:04.647Z,997.20
2018-04-30T06:40:04.679Z,997.23
2018-04-30T06:41:04.703Z,997.22
2018-04-30T06:42:04.738Z,997.20
2018-04-30T06:43:04.756Z,997.18
2018-04-30T06:44:04.779Z,997.09
2018-04-30T06:45:04.805Z,997.12
2018-04-30T06:46:04.831Z,997.14
2018-04-30T06:47:04.869Z,997.13
2018-04-30T06:48:04.878Z,997.13
2018-04-30T06:49:04.904Z,997.06
2018-04-30T06:50:04.936Z,997.01
2018-04-30T06:51:04.961Z,997.03
2018-04-30T06:52:04.982Z,997.06
2018-04-30T06:53:05.016Z,997.05
2018-04-30T06:54:05.032Z,997.07
2018-04-30T06:55:05.059Z,997.12
2018-04-30T06:56:05.093Z,997.15
2018-04-30T06:57:05.115Z,997.15
2018-04-30T06:58:05.133Z,997.20
2018-04-30T06:59:05.166Z,997.21
2018-04-30T07:00:05.195Z,997.20
2018-04-30T07:01:05.212Z,997.23
2018-04-30T07:02:05.240Z,997.25
2018-04-30T07:03:05.266Z,997.24
2018-04-30T07:04:05.295Z,997.20
2018-04-30T07:05:05.312Z,997.25
2018-04-30T07:06:05.347Z,997.26
2018-04-30T07:07:05.367Z,997.24
2018-04-30T07:08:05.392Z,997.27
2018-04-30T07:09:05.438Z,997.19
2018-04-30T07:10:05.443Z,997.06
2018-04-30T07:11:05.472Z,997.07
2018-04-30T07:12:05.496Z,997.07
2018-04-30T07:13:05.522Z,997.10
2018-04-30T07:14:05.555Z,997.14
2018-04-30T07:15:05.578Z,997.08
2018-04-30T07:16:05.601Z,997.03
2018-04-30T07:17:05.632Z,997.03
2018-04-30T07:18:05.728Z,997.00
2018-04-30T07:19:05.691Z,997.02
2018-04-30T07:20:05.798Z,996.96
2018-04-30T07:21:05.740Z,997.03
2018-04-30T07:22:05.764Z,997.11
2018-04-30T07:23:05.787Z,997.06
2018-04-30T07:24:05.819Z,997.15
2018-04-30T07:25:05.852Z,997.14
2018-04-30T07:26:05.869Z,997.12
2018-04-30T07:27:05.891Z,997.07
2018-04-30T07:28:05.920Z,997.10
2018-04-30T07:29:05.946Z,997.17
2018-04-30T07:30:05.974Z,997.21
2018-04-30T07:31:06.004Z,997.24
2018-04-30T07:32:06.025Z,997.22
2018-04-30T07:33:06.055Z,997.11
2018-04-30T07:34:06.080Z,997.10
2018-04-30T07:35:06.104Z,997.10
2018-04-30T07:36:06.138Z,997.09
2018-04-30T07:37:06.160Z,997.11
2018-04-30T07:38:06.192Z,997.13
2018-04-30T07:39:06.247Z,997.10
2018-04-30T07:40:06.239Z,996.98
2018-04-30T07:41:06.270Z,997.01
2018-04-30T07:42:06.302Z,997.03
2018-04-30T07:43:06.324Z,997.05
2018-04-30T07:44:06.351Z,997.12
2018-04-30T07:45:06.379Z,997.13
2018-04-30T07:46:06.399Z,997.08
2018-04-30T07:47:06.433Z,997.05
2018-04-30T07:48:06.456Z,996.98
2018-04-30T07:49:06.537Z,996.97
2018-04-30T07:50:06.510Z,996.93
2018-04-30T07:51:06.543Z,996.96
2018-04-30T07:52:06.571Z,996.98
2018-04-30T07:53:06.594Z,996.95
2018-04-30T07:54:06.619Z,996.90
2018-04-30T07:55:06.648Z,996.95
2018-04-30T07:56:06.711Z,996.93
2018-04-30T07:57:06.700Z,996.99
2018-04-30T07:58:06.729Z,996.96
2018-04-30T07:59:06.754Z,996.91
2018-04-30T08:00:06.784Z,996.87
2018-04-30T08:01:06.808Z,996.88
2018-04-30T08:02:06.839Z,996.90
2018-04-30T08:03:06.889Z,996.94
2018-04-30T08:04:06.894Z,997.01
2018-04-30T08:05:06.924Z,997.03
2018-04-30T08:06:06.947Z,997.05
2018-04-30T08:07:06.974Z,997.07
2018-04-30T08:08:07.007Z,997.06
2018-04-30T08:09:07.108Z,997.07
2018-04-30T08:10:07.055Z,997.13
2018-04-30T08:11:07.086Z,997.17
2018-04-30T08:12:07.112Z,997.04
2018-04-30T08:13:07.140Z,997.06
2018-04-30T08:14:07.161Z,997.05
2018-04-30T08:15:07.203Z,997.07
2018-04-30T08:16:07.222Z,997.11
2018-04-30T08:17:07.252Z,997.14
2018-04-30T08:18:07.277Z,997.23
2018-04-30T08:19:07.303Z,997.25
2018-04-30T08:20:07.336Z,997.32
2018-04-30T08:21:07.355Z,997.37
2018-04-30T08:22:07.391Z,997.31
2018-04-30T08:23:07.419Z,997.37
2018-04-30T08:24:07.443Z,997.42
2018-04-30T08:25:07.473Z,997.41
2018-04-30T08:26:07.513Z,997.41
2018-04-30T08:27:07.523Z,997.36
2018-04-30T08:28:07.555Z,997.35
2018-04-30T08:29:07.577Z,997.40
2018-04-30T08:30:07.607Z,997.45
2018-04-30T08:31:07.639Z,997.43
2018-04-30T08:32:07.665Z,997.51
2018-04-30T08:33:07.693Z,997.55
2018-04-30T08:34:07.726Z,997.58
2018-04-30T08:35:07.747Z,997.55
2018-04-30T08:36:07.774Z,997.52
2018-04-30T08:37:07.801Z,997.57
2018-04-30T08:38:07.832Z,997.58
2018-04-30T08:39:07.858Z,997.58
2018-04-30T08:40:07.890Z,997.55
2018-04-30T08:41:07.920Z,997.57
2018-04-30T08:42:07.949Z,997.60
2018-04-30T08:43:07.983Z,997.63
2018-04-30T08:44:08.004Z,997.58
2018-04-30T08:45:08.036Z,997.59
2018-04-30T08:46:08.058Z,997.63
2018-04-30T08:47:08.092Z,997.63
2018-04-30T08:48:08.115Z,997.66
2018-04-30T08:49:08.148Z,997.68
2018-04-30T08:50:08.169Z,997.69
2018-04-30T08:51:08.198Z,997.71
2018-04-30T08:52:08.288Z,997.76
2018-04-30T08:53:08.265Z,997.64
2018-04-30T08:54:08.281Z,997.56
2018-04-30T08:55:08.312Z,997.55
2018-04-30T08:56:08.342Z,997.55
2018-04-30T08:57:08.370Z,997.57
2018-04-30T08:58:08.398Z,997.55
2018-04-30T08:59:08.428Z,997.57
2018-04-30T09:00:08.455Z,997.57
2018-04-30T09:01:08.479Z,997.54
2018-04-30T09:02:08.504Z,997.54
2018-04-30T09:03:08.542Z,997.54
2018-04-30T09:04:08.564Z,997.49
2018-04-30T09:05:08.592Z,997.57
2018-04-30T09:06:08.616Z,997.55
2018-04-30T09:07:08.654Z,997.53
2018-04-30T09:08:08.671Z,997.52
2018-04-30T09:09:08.717Z,997.52
2018-04-30T09:10:08.735Z,997.48
2018-04-30T09:11:08.758Z,997.44
2018-04-30T09:12:08.786Z,997.47
2018-04-30T09:13:08.814Z,997.47
2018-04-30T09:14:08.854Z,997.50
2018-04-30T09:15:08.878Z,997.50
2018-04-30T09:16:08.904Z,997.48
2018-04-30T09:17:08.926Z,997.42
2018-04-30T09:18:08.950Z,997.49
2018-04-30T09:19:08.987Z,997.54
2018-04-30T09:20:09.013Z,997.51
2018-04-30T09:21:09.036Z,997.54
2018-04-30T09:22:09.065Z,997.52
2018-04-30T09:23:09.090Z,997.51
2018-04-30T09:24:09.125Z,997.53
2018-04-30T09:25:09.151Z,997.48
2018-04-30T09:26:09.177Z,997.47
2018-04-30T09:27:09.204Z,997.52
2018-04-30T09:28:09.255Z,997.57
2018-04-30T09:29:09.330Z,997.51
2018-04-30T09:30:09.285Z,997.47
2018-04-30T09:31:09.316Z,997.51
2018-04-30T09:32:09.343Z,997.43
2018-04-30T09:33:09.372Z,997.41
2018-04-30T09:34:09.394Z,997.44
2018-04-30T09:35:09.424Z,997.38
2018-04-30T09:36:09.454Z,997.36
2018-04-30T09:37:09.492Z,997.27
2018-04-30T09:38:09.513Z,997.27
2018-04-30T09:39:09.548Z,997.22
2018-04-30T09:40:09.575Z,997.24
2018-04-30T09:41:09.598Z,997.17
2018-04-30T09:42:09.625Z,997.20
2018-04-30T09:43:09.652Z,997.20
2018-04-30T09:44:09.679Z,997.16
2018-04-30T09:45:09.704Z,997.23
2018-04-30T09:46:09.736Z,997.25
2018-04-30T09:47:09.759Z,997.28
2018-04-30T09:48:09.790Z,997.42
2018-04-30T09:49:09.896Z,997.43
2018-04-30T09:50:09.846Z,997.50
2018-04-30T09:51:09.870Z,997.56
2018-04-30T09:52:09.903Z,997.75
2018-04-30T09:53:09.928Z,997.68
2018-04-30T09:54:09.954Z,997.69
2018-04-30T09:55:09.982Z,997.72
2018-04-30T09:56:10.012Z,997.74
2018-04-30T09:57:10.035Z,997.91
2018-04-30T09:58:10.064Z,997.79
2018-04-30T09:59:10.091Z,998.08
2018-04-30T10:00:10.118Z,998.19
2018-04-30T10:01:10.147Z,998.31
2018-04-30T10:02:10.176Z,998.32
2018-04-30T10:03:10.198Z,998.39
2018-04-30T10:04:10.230Z,998.15
2018-04-30T10:05:10.252Z,998.03
2018-04-30T10:06:10.278Z,997.98
2018-04-30T10:07:10.311Z,998.13
2018-04-30T10:08:10.334Z,997.87
2018-04-30T10:09:10.363Z,998.04
2018-04-30T10:10:10.389Z,997.89
2018-04-30T10:11:10.420Z,997.95
2018-04-30T10:12:10.455Z,997.88
2018-04-30T10:13:10.470Z,997.91
2018-04-30T10:14:10.499Z,997.87
2018-04-30T10:15:10.532Z,998.07
2018-04-30T10:16:10.556Z,997.89
2018-04-30T10:17:10.577Z,998.09
2018-04-30T10:18:10.603Z,998.03
2018-04-30T10:19:10.640Z,998.08
2018-04-30T10:20:10.660Z,997.91
2018-04-30T10:21:10.687Z,997.99
2018-04-30T10:22:10.713Z,998.00
2018-04-30T10:23:10.739Z,998.05
2018-04-30T10:24:10.771Z,997.98
2018-04-30T10:25:10.804Z,998.07
2018-04-30T10:26:10.823Z,998.03
2018-04-30T10:27:10.847Z,998.02
2018-04-30T10:28:10.874Z,997.98
2018-04-30T10:29:10.934Z,998.11
2018-04-30T10:30:10.935Z,997.89
2018-04-30T10:31:10.961Z,998.05
2018-04-30T10:32:10.985Z,998.00
2018-04-30T10:33:11.014Z,998.01
2018-04-30T10:34:11.036Z,998.15
2018-04-30T10:35:11.067Z,998.09
2018-04-30T10:36:11.092Z,998.16
2018-04-30T10:37:11.123Z,998.34
2018-04-30T10:38:11.151Z,998.38
2018-04-30T10:39:11.171Z,998.46
2018-04-30T10:40:11.202Z,998.39
2018-04-30T10:41:11.225Z,998.60
2018-04-30T10:42:11.257Z,998.48
2018-04-30T10:43:11.281Z,998.65
2018-04-30T10:44:11.302Z,998.64
2018-04-30T10:45:11.330Z,998.65
2018-04-30T10:46:11.358Z,998.67
2018-04-30T10:47:11.393Z,998.81
2018-04-30T10:48:11.407Z,998.90
2018-04-30T10:49:11.437Z,998.85
2018-04-30T10:50:11.464Z,998.94
2018-04-30T10:51:11.542Z,999.17
2018-04-30T10:52:11.518Z,998.84
2018-04-30T10:53:11.544Z,998.78
2018-04-30T10:54:11.576Z,998.84
2018-04-30T10:55:11.596Z,998.83
2018-04-30T10:56:11.622Z,998.80
2018-04-30T10:57:11.650Z,999.06
2018-04-30T10:58:11.682Z,999.12
2018-04-30T10:59:11.706Z,999.47
2018-04-30T11:00:11.735Z,999.38
2018-04-30T11:01:11.755Z,999.61
2018-04-30T11:02:11.781Z,999.93
2018-04-30T11:03:11.810Z,999.56
2018-04-30T11:04:11.845Z,999.49
2018-04-30T11:05:11.863Z,999.54
2018-04-30T11:06:11.886Z,999.44
2018-04-30T11:07:11.917Z,999.33
2018-04-30T11:08:11.940Z,999.23
2018-04-30T11:09:11.970Z,999.20
2018-04-30T11:10:11.993Z,999.22
2018-04-30T11:11:12.024Z,999.16
2018-04-30T11:12:12.054Z,999.21
2018-04-30T11:13:12.077Z,999.29
2018-04-30T11:14:12.105Z,999.59
2018-04-30T11:15:12.132Z,1000.20
2018-04-30T11:16:12.155Z,1000.22
2018-04-30T11:17:12.181Z,999.97
2018-04-30T11:18:12.215Z,999.95
2018-04-30T11:19:12.240Z,999.51
2018-04-30T11:20:12.265Z,999.44
2018-04-30T11:21:12.290Z,999.31
2018-04-30T11:22:12.322Z,999.07
2018-04-30T11:23:12.345Z,998.96
2018-04-30T11:24:12.373Z,999.00
2018-04-30T11:25:12.400Z,998.96
2018-04-30T11:26:12.435Z,998.93
2018-04-30T11:27:12.454Z,998.92
2018-04-30T11:28:12.484Z,998.97
2018-04-30T11:29:12.511Z,998.92
2018-04-30T11:30:12.535Z,998.98
2018-04-30T11:31:12.566Z,998.98
2018-04-30T11:32:12.593Z,999.01
2018-04-30T11:33:12.624Z,999.01
2018-04-30T11:34:12.649Z,999.09
2018-04-30T11:35:12.677Z,999.06
2018-04-30T11:36:12.703Z,999.13
2018-04-30T11:37:12.724Z,999.28
2018-04-30T11:38:12.757Z,999.14
2018-04-30T11:39:12.780Z,999.28
2018-04-30T11:40:12.806Z,999.12
2018-04-30T11:41:12.829Z,999.10
2018-04-30T11:42:12.860Z,999.23
2018-04-30T11:43:12.893Z,999.30
2018-04-30T11:44:12.915Z,999.15
2018-04-30T11:45:12.936Z,999.42
2018-04-30T11:46:12.961Z,999.25
2018-04-30T11:47:13.038Z,999.45
2018-04-30T11:48:13.020Z,999.37
2018-04-30T11:49:13.048Z,999.41
2018-04-30T11:50:13.069Z,999.42
2018-04-30T11:51:13.094Z,999.52
2018-04-30T11:52:13.119Z,999.51
2018-04-30T11:53:13.143Z,999.52
2018-04-30T11:54:13.173Z,999.41
2018-04-30T11:55:13.200Z,999.45
2018-04-30T11:56:13.228Z,999.44
2018-04-30T11:57:13.244Z,999.38
2018-04-30T11:58:13.273Z,999.36
2018-04-30T11:59:13.294Z,999.41
2018-04-30T12:00:13.325Z,999.41
2018-04-30T12:01:13.349Z,999.35
2018-04-30T12:02:13.376Z,999.46
2018-04-30T12:03:13.400Z,999.48
2018-04-30T12:04:13.426Z,999.48
2018-04-30T12:05:13.448Z,999.49
2018-04-30T12:06:13.472Z,999.55
2018-04-30T12:07:13.502Z,999.60
2018-04-30T12:08:13.529Z,999.64
2018-04-30T12:09:13.561Z,999.63
2018-04-30T12:10:13.576Z,999.71
2018-04-30T12:11:13.604Z,999.65
2018-04-30T12:12:13.623Z,999.71
2018-04-30T12:13:13.646Z,999.70
2018-04-30T12:14:13.674Z,999.63
2018-04-30T12:15:13.698Z,999.65
2018-04-30T12:16:13.719Z,999.67
2018-04-30T12:17:13.748Z,999.70
2018-04-30T12:18:13.769Z,999.61
2018-04-30T12:19:13.794Z,999.70
2018-04-30T12:20:13.819Z,999.59
2018-04-30T12:21:13.843Z,999.53
2018-04-30T12:22:13.960Z,999.58
2018-04-30T12:23:13.892Z,999.57
2018-04-30T12:24:13.918Z,999.58